Time;durP1;ratioP1;P1;durP2;ratioP2;P2;SDS_P1;SDS_P2;PMS_P1;PMS_P2;Temp;Humidity;BMP_temperature;BMP_pressure;BME280_temperature;BME280_humidity;BME280_pressure;Samples;Min_cycle;Max_cycle;Signal;HPM_P1;HPM_P2
2023/03/26 00:00:52;;;;;;;8.32;1.42;;;7.50;99.90;;;;;;4933171;29;20110;-49
2023/03/26 00:03:19;;;;;;;12.10;1.50;;;7.60;99.90;;;;;;4932720;29;20035;-52
2023/03/26 00:05:48;;;;;;;4.22;1.10;;;7.60;99.90;;;;;;4933081;29;20071;-51
2023/03/26 00:08:15;;;;;;;8.57;1.60;;;7.50;99.90;;;;;;4933015;29;20043;-48
2023/03/26 00:10:43;;;;;;;8.80;1.60;;;7.60;99.90;;;;;;4932886;29;20047;-47
2023/03/26 00:13:09;;;;;;;9.73;1.70;;;7.50;99.90;;;;;;4932918;29;20043;-49
2023/03/26 00:15:36;;;;;;;7.68;1.58;;;7.50;99.90;;;;;;4931668;29;20464;-48
2023/03/26 00:18:02;;;;;;;8.00;1.30;;;7.50;99.90;;;;;;4932677;29;20047;-51
2023/03/26 00:20:31;;;;;;;10.50;1.85;;;7.70;99.90;;;;;;4932776;29;20075;-49
2023/03/26 00:23:00;;;;;;;9.70;1.48;;;7.70;99.90;;;;;;4932993;29;20428;-49
2023/03/26 00:25:26;;;;;;;8.32;1.55;;;7.50;99.90;;;;;;4932694;29;20525;-50
2023/03/26 00:27:52;;;;;;;9.25;2.08;;;8.00;99.90;;;;;;4932798;29;20177;-52
2023/03/26 00:30:18;;;;;;;7.07;1.60;;;7.60;99.90;;;;;;4932921;29;20057;-50
2023/03/26 00:32:44;;;;;;;10.38;1.70;;;7.80;99.90;;;;;;4932633;29;20044;-49
2023/03/26 00:35:09;;;;;;;9.98;1.90;;;7.70;99.90;;;;;;4933017;29;20154;-49
2023/03/26 00:37:36;;;;;;;10.93;1.70;;;7.60;99.90;;;;;;4932423;29;20400;-50
2023/03/26 00:40:05;;;;;;;10.50;1.98;;;7.60;99.90;;;;;;4931507;29;20043;-48
2023/03/26 00:42:32;;;;;;;10.63;1.85;;;7.70;99.90;;;;;;4932362;29;20055;-48
2023/03/26 00:44:58;;;;;;;9.30;2.00;;;7.60;99.90;;;;;;4932726;29;20123;-51
2023/03/26 00:47:25;;;;;;;11.00;1.70;;;7.60;99.90;;;;;;4930932;29;20043;-49
2023/03/26 00:49:51;;;;;;;9.45;1.92;;;7.70;99.90;;;;;;4932575;29;20043;-48
2023/03/26 00:52:17;;;;;;;10.68;1.75;;;7.60;99.90;;;;;;4932715;29;20400;-51
2023/03/26 00:54:47;;;;;;;8.57;1.75;;;7.80;99.90;;;;;;4931808;29;20051;-51
2023/03/26 00:57:13;;;;;;;10.70;1.80;;;7.60;99.90;;;;;;4932557;29;20044;-47
2023/03/26 00:59:40;;;;;;;9.00;1.95;;;7.60;99.90;;;;;;4932607;29;20043;-49
2023/03/26 01:02:09;;;;;;;11.05;1.80;;;7.70;99.90;;;;;;4932784;29;20487;-50
2023/03/26 01:04:36;;;;;;;10.00;1.77;;;7.70;99.90;;;;;;4932378;29;20047;-51
2023/03/26 01:07:12;;;;;;;7.80;1.55;;;7.50;99.90;;;;;;4932492;29;20042;-48
2023/03/26 01:09:49;;;;;;;10.32;1.83;;;7.60;99.90;;;;;;4915219;29;20043;-47
2023/03/26 01:12:18;;;;;;;9.50;1.92;;;7.60;99.90;;;;;;4932416;29;20139;-47
2023/03/26 01:14:46;;;;;;;8.15;1.85;;;7.60;99.90;;;;;;4932460;29;20135;-48
2023/03/26 01:17:12;;;;;;;10.15;1.75;;;7.60;99.90;;;;;;4932127;29;20423;-51
2023/03/26 01:19:44;;;;;;;14.38;2.45;;;7.40;99.90;;;;;;4932684;29;20074;-51
2023/03/26 01:22:15;;;;;;;9.52;1.80;;;7.60;99.90;;;;;;4935086;29;20071;-52
2023/03/26 01:24:41;;;;;;;10.18;1.85;;;7.40;99.90;;;;;;4934952;29;20173;-49
2023/03/26 01:27:23;;;;;;;9.32;1.90;;;7.30;99.90;;;;;;4935894;29;20451;-50
2023/03/26 01:30:15;;;;;;;9.07;1.90;;;7.50;99.90;;;;;;4934418;29;20051;-49
2023/03/26 01:33:22;;;;;;;8.48;2.17;;;7.40;99.90;;;;;;4935647;29;20510;-47
2023/03/26 01:36:04;;;;;;;13.32;1.90;;;7.30;99.90;;;;;;4935330;29;20038;-50
2023/03/26 01:38:51;;;;;;;10.57;1.92;;;7.30;99.90;;;;;;4935601;29;20036;-49
2023/03/26 01:41:31;;;;;;;14.02;1.85;;;7.50;99.90;;;;;;4934764;29;20126;-53
2023/03/26 01:44:21;;;;;;;11.27;1.98;;;7.50;99.90;;;;;;4935310;29;20079;-51
2023/03/26 01:46:47;;;;;;;11.77;2.40;;;7.50;99.90;;;;;;4935258;29;20040;-49
2023/03/26 01:49:13;;;;;;;9.07;1.58;;;7.50;99.90;;;;;;4934010;29;20040;-49
2023/03/26 01:51:41;;;;;;;7.07;1.55;;;7.70;99.90;;;;;;4934844;29;20052;-50
2023/03/26 01:54:14;;;;;;;6.35;1.70;;;7.50;99.90;;;;;;4929432;29;20058;-51
2023/03/26 01:57:02;;;;;;;13.80;2.00;;;7.30;99.90;;;;;;4934994;29;20054;-47
2023/03/26 01:59:56;;;;;;;10.75;2.00;;;7.50;99.90;;;;;;4935217;29;20111;-49
2023/03/26 02:02:34;;;;;;;12.05;2.25;;;7.30;99.90;;;;;;4933937;29;20035;-45
2023/03/26 02:05:14;;;;;;;8.75;1.83;;;7.30;99.90;;;;;;4933344;29;20158;-46
2023/03/26 02:07:49;;;;;;;8.55;1.85;;;7.30;99.90;;;;;;4934813;29;20048;-48
2023/03/26 02:10:47;;;;;;;10.90;2.00;;;7.10;99.90;;;;;;4935186;29;20066;-48
2023/03/26 02:13:14;;;;;;;13.63;1.92;;;7.20;99.90;;;;;;4917066;29;20059;-47
2023/03/26 02:15:40;;;;;;;8.27;2.35;;;7.10;99.90;;;;;;4934654;29;20070;-49
2023/03/26 02:18:09;;;;;;;12.20;2.33;;;7.10;99.90;;;;;;4934603;29;20047;-45
2023/03/26 02:20:36;;;;;;;14.05;2.45;;;7.00;99.90;;;;;;4933158;29;20079;-52
2023/03/26 02:23:02;;;;;;;8.98;1.90;;;7.30;99.90;;;;;;4934459;29;20138;-48
2023/03/26 02:25:28;;;;;;;11.27;1.98;;;7.30;99.90;;;;;;4934386;29;20039;-50
2023/03/26 02:27:54;;;;;;;12.05;2.10;;;7.10;99.90;;;;;;4933590;29;20043;-48
2023/03/26 02:30:24;;;;;;;10.50;1.70;;;7.30;99.90;;;;;;4917219;29;20047;-49
2023/03/26 02:32:52;;;;;;;12.75;2.17;;;7.20;99.90;;;;;;4933124;29;20040;-52
2023/03/26 02:35:20;;;;;;;9.60;1.83;;;7.00;99.90;;;;;;4934216;29;20078;-52
2023/03/26 02:37:49;;;;;;;9.95;2.00;;;7.30;99.90;;;;;;4934526;29;20459;-49
2023/03/26 02:40:16;;;;;;;10.52;1.88;;;7.40;99.90;;;;;;4917075;29;20048;-49
2023/03/26 02:42:42;;;;;;;13.15;2.60;;;7.10;99.90;;;;;;4934176;29;20047;-47
2023/03/26 02:45:08;;;;;;;11.00;2.30;;;7.00;99.90;;;;;;4934201;29;20047;-51
2023/03/26 02:47:34;;;;;;;12.73;2.20;;;7.10;99.90;;;;;;4933976;29;20065;-50
2023/03/26 02:50:00;;;;;;;9.55;2.13;;;7.30;99.90;;;;;;4934219;29;20048;-48
2023/03/26 02:52:26;;;;;;;8.88;2.00;;;7.40;99.90;;;;;;4933884;29;20095;-50
2023/03/26 02:54:52;;;;;;;8.05;2.10;;;7.20;99.90;;;;;;4933392;29;20126;-51
2023/03/26 02:57:19;;;;;;;11.63;2.17;;;7.30;99.90;;;;;;4933716;29;20076;-52
2023/03/26 02:59:45;;;;;;;14.68;2.25;;;7.30;99.90;;;;;;4934144;29;20055;-50
2023/03/26 03:02:12;;;;;;;11.15;2.35;;;7.30;99.90;;;;;;4933987;29;20040;-50
2023/03/26 03:04:38;;;;;;;10.63;2.20;;;7.10;99.90;;;;;;4933657;29;20118;-47
2023/03/26 03:07:04;;;;;;;9.77;2.03;;;7.20;99.90;;;;;;4933815;29;20131;-52
2023/03/26 03:09:30;;;;;;;11.20;2.55;;;6.90;99.90;;;;;;4933979;29;20048;-50
2023/03/26 03:11:55;;;;;;;10.77;2.03;;;7.30;99.90;;;;;;4933488;29;20099;-49
2023/03/26 03:14:21;;;;;;;13.15;2.85;;;7.20;99.90;;;;;;4933692;29;20039;-51
2023/03/26 03:16:47;;;;;;;11.23;2.63;;;7.40;99.90;;;;;;4933829;29;20040;-50
2023/03/26 03:19:13;;;;;;;15.85;3.28;;;7.10;99.90;;;;;;4932033;29;20035;-51
2023/03/26 03:21:40;;;;;;;9.60;3.47;;;6.90;99.90;;;;;;4933358;29;20496;-48
2023/03/26 03:24:06;;;;;;;13.73;2.95;;;6.60;99.90;;;;;;4933408;29;20044;-49
2023/03/26 03:26:33;;;;;;;7.65;2.80;;;6.90;99.90;;;;;;4933542;29;20131;-47
2023/03/26 03:28:59;;;;;;;13.63;3.45;;;6.80;99.90;;;;;;4933776;29;20511;-50
2023/03/26 03:31:25;;;;;;;14.20;3.22;;;6.60;99.90;;;;;;4933679;29;20047;-49
2023/03/26 03:33:51;;;;;;;13.70;3.53;;;6.90;99.90;;;;;;4933338;29;20086;-48
2023/03/26 03:36:20;;;;;;;11.00;2.92;;;6.70;99.90;;;;;;4933151;29;20071;-49
2023/03/26 03:38:47;;;;;;;13.52;2.90;;;6.60;99.90;;;;;;4933305;29;20535;-50
2023/03/26 03:41:13;;;;;;;8.73;2.92;;;6.50;99.90;;;;;;4931865;29;20051;-51
2023/03/26 03:43:40;;;;;;;15.35;4.03;;;6.90;99.90;;;;;;4932827;29;20043;-51
2023/03/26 03:46:06;;;;;;;15.00;3.28;;;6.50;99.90;;;;;;4933111;29;20419;-49
2023/03/26 03:48:32;;;;;;;13.40;3.72;;;6.70;99.90;;;;;;4930340;29;20496;-46
2023/03/26 03:50:58;;;;;;;12.55;3.70;;;6.80;99.90;;;;;;4933019;29;20075;-49
2023/03/26 03:53:25;;;;;;;15.70;3.92;;;6.90;99.90;;;;;;4932392;29;20036;-47
2023/03/26 03:55:55;;;;;;;14.93;4.22;;;6.80;99.90;;;;;;4931924;29;20191;-50
2023/03/26 03:58:22;;;;;;;14.98;4.38;;;6.70;99.90;;;;;;4931695;29;20118;-49
2023/03/26 04:00:49;;;;;;;13.52;4.13;;;6.70;99.90;;;;;;4932831;29;20036;-51
2023/03/26 04:03:15;;;;;;;19.08;4.75;;;6.50;99.90;;;;;;4931861;29;20075;-50
2023/03/26 04:05:42;;;;;;;15.40;4.65;;;6.60;99.90;;;;;;4933064;29;20479;-46
2023/03/26 04:08:08;;;;;;;19.80;5.25;;;6.50;99.90;;;;;;4932657;29;20040;-51
2023/03/26 04:10:33;;;;;;;17.65;5.15;;;6.50;99.90;;;;;;4932868;29;20249;-48
2023/03/26 04:12:59;;;;;;;13.95;4.45;;;7.10;99.90;;;;;;4918887;29;20052;-52
2023/03/26 04:15:25;;;;;;;13.43;4.28;;;6.50;99.90;;;;;;4932411;29;20039;-51
2023/03/26 04:17:50;;;;;;;13.73;4.47;;;7.00;99.90;;;;;;4932806;29;20039;-49
2023/03/26 04:20:18;;;;;;;16.05;4.82;;;6.80;99.90;;;;;;4932622;29;20036;-47
2023/03/26 04:22:44;;;;;;;14.32;4.40;;;6.60;99.90;;;;;;4932725;29;20050;-47
2023/03/26 04:25:11;;;;;;;17.30;4.70;;;6.60;99.90;;;;;;4932546;29;20043;-49
2023/03/26 04:27:40;;;;;;;15.93;4.75;;;7.00;99.90;;;;;;4933445;29;20428;-50
2023/03/26 04:30:08;;;;;;;19.65;4.88;;;7.10;99.90;;;;;;4933487;29;20435;-52
2023/03/26 04:32:37;;;;;;;14.13;4.95;;;6.60;99.90;;;;;;4931245;29;21537;-51
2023/03/26 04:35:04;;;;;;;12.15;4.30;;;6.70;99.90;;;;;;4932548;29;20051;-48
2023/03/26 04:37:38;;;;;;;13.65;4.63;;;7.10;99.90;;;;;;4915289;29;20068;-54
2023/03/26 04:40:10;;;;;;;15.07;4.93;;;6.90;99.90;;;;;;4932632;29;20067;-50
2023/03/26 04:42:40;;;;;;;11.85;4.40;;;6.80;99.90;;;;;;4915444;29;20130;-50
2023/03/26 04:45:07;;;;;;;15.32;5.15;;;6.90;99.90;;;;;;4932603;29;20399;-46
2023/03/26 04:47:38;;;;;;;16.02;5.13;;;6.80;99.90;;;;;;4932878;29;20039;-47
2023/03/26 04:50:06;;;;;;;13.50;5.22;;;7.10;99.90;;;;;;4930796;29;20059;-48
2023/03/26 04:52:32;;;;;;;15.40;4.78;;;7.00;99.90;;;;;;4932359;29;20484;-49
2023/03/26 04:54:58;;;;;;;18.02;5.03;;;7.10;99.90;;;;;;4931908;29;20122;-47
2023/03/26 04:57:54;;;;;;;15.68;5.25;;;6.80;99.90;;;;;;4934568;29;20071;-47
2023/03/26 05:00:20;;;;;;;16.85;5.28;;;6.80;99.90;;;;;;4935037;29;20059;-47
2023/03/26 05:02:49;;;;;;;20.27;5.60;;;7.10;99.90;;;;;;4935913;29;20048;-49
2023/03/26 05:05:16;;;;;;;14.23;5.18;;;6.70;99.90;;;;;;4936297;29;20042;-50
2023/03/26 05:07:42;;;;;;;17.33;5.07;;;6.90;99.90;;;;;;4935768;29;20462;-46
2023/03/26 05:10:12;;;;;;;16.73;5.15;;;6.70;99.90;;;;;;4935872;29;20055;-49
2023/03/26 05:12:37;;;;;;;21.05;6.22;;;6.80;99.90;;;;;;4935608;29;20135;-49
2023/03/26 05:15:04;;;;;;;19.38;5.40;;;7.00;99.90;;;;;;4935524;29;20126;-47
2023/03/26 05:17:33;;;;;;;16.50;5.32;;;7.00;99.90;;;;;;4935426;29;20467;-48
2023/03/26 05:20:00;;;;;;;17.33;5.22;;;7.00;99.90;;;;;;4936011;29;20046;-48
2023/03/26 05:22:25;;;;;;;15.60;5.10;;;7.20;99.90;;;;;;4934101;29;20172;-51
2023/03/26 05:24:51;;;;;;;20.75;6.43;;;6.90;99.90;;;;;;4934036;29;20060;-49
2023/03/26 05:27:19;;;;;;;19.05;5.60;;;7.20;99.90;;;;;;4936002;29;20043;-48
2023/03/26 05:29:45;;;;;;;17.60;6.05;;;7.10;99.90;;;;;;4935336;29;20078;-47
2023/03/26 05:32:10;;;;;;;17.23;5.50;;;6.60;99.90;;;;;;4935747;29;20043;-47
2023/03/26 05:34:38;;;;;;;19.33;6.25;;;6.80;99.90;;;;;;4935286;29;20039;-47
2023/03/26 05:37:05;;;;;;;18.00;6.05;;;7.30;99.90;;;;;;4934090;29;20483;-48
2023/03/26 05:39:31;;;;;;;22.02;5.97;;;6.90;99.90;;;;;;4935636;29;20387;-48
2023/03/26 05:41:57;;;;;;;19.27;6.35;;;7.20;99.90;;;;;;4935610;29;20086;-47
2023/03/26 05:44:23;;;;;;;22.95;6.15;;;7.30;99.90;;;;;;4936054;29;20071;-49
2023/03/26 05:46:49;;;;;;;19.80;6.28;;;6.80;99.90;;;;;;4935046;29;20043;-49
2023/03/26 05:49:14;;;;;;;17.95;6.45;;;6.90;99.90;;;;;;4935114;29;20071;-48
2023/03/26 05:51:40;;;;;;;15.98;5.70;;;7.40;99.90;;;;;;4930936;29;20056;-49
2023/03/26 05:54:06;;;;;;;15.90;6.25;;;7.30;99.90;;;;;;4934768;29;20032;-50
2023/03/26 05:56:32;;;;;;;19.92;6.43;;;6.80;99.90;;;;;;4935785;29;20040;-47
2023/03/26 05:58:57;;;;;;;17.10;6.35;;;7.30;99.90;;;;;;4935345;29;20031;-51
2023/03/26 06:01:24;;;;;;;15.10;6.43;;;7.00;99.90;;;;;;4935220;29;20098;-47
2023/03/26 06:03:50;;;;;;;15.77;6.13;;;7.30;99.90;;;;;;4917658;29;20058;-48
2023/03/26 06:06:19;;;;;;;15.93;5.70;;;7.20;99.90;;;;;;4934242;29;20167;-49
2023/03/26 06:08:50;;;;;;;16.15;5.90;;;6.80;99.90;;;;;;4933910;29;20491;-52
2023/03/26 06:11:17;;;;;;;18.65;5.80;;;6.90;99.90;;;;;;4934503;29;20055;-51
2023/03/26 06:13:44;;;;;;;16.80;6.30;;;7.30;99.90;;;;;;4935091;29;20035;-48
2023/03/26 06:16:10;;;;;;;21.73;6.20;;;7.10;99.90;;;;;;4934510;29;20434;-47
2023/03/26 06:18:37;;;;;;;21.60;6.38;;;7.40;99.90;;;;;;4933611;29;20039;-50
2023/03/26 06:21:04;;;;;;;20.83;6.65;;;6.90;99.90;;;;;;4935258;29;20140;-48
2023/03/26 06:23:30;;;;;;;19.73;6.25;;;7.20;99.90;;;;;;4935094;29;20051;-50
2023/03/26 06:25:56;;;;;;;17.60;6.20;;;6.90;99.90;;;;;;4933671;29;20035;-48
2023/03/26 06:28:22;;;;;;;18.92;5.90;;;7.20;99.90;;;;;;4934289;29;20036;-49
2023/03/26 06:30:49;;;;;;;17.52;5.93;;;7.20;99.90;;;;;;4932923;29;20044;-49
2023/03/26 06:33:14;;;;;;;16.90;5.65;;;7.40;99.90;;;;;;4934553;29;20395;-50
2023/03/26 06:35:41;;;;;;;22.77;6.38;;;7.30;99.90;;;;;;4934243;29;20032;-47
2023/03/26 06:38:07;;;;;;;19.98;5.95;;;7.10;99.90;;;;;;4934429;29;20040;-51
2023/03/26 06:40:33;;;;;;;26.45;5.28;;;7.40;99.90;;;;;;4934293;29;20086;-48
2023/03/26 06:42:59;;;;;;;15.23;5.00;;;7.20;99.90;;;;;;4934079;29;20757;-47
2023/03/26 06:45:28;;;;;;;17.08;4.40;;;7.30;99.90;;;;;;4934247;29;20513;-51
2023/03/26 06:47:54;;;;;;;15.43;5.13;;;7.50;99.90;;;;;;4934390;29;20039;-48
2023/03/26 06:50:19;;;;;;;23.27;5.07;;;7.30;99.90;;;;;;4933930;29;20127;-47
2023/03/26 06:52:45;;;;;;;20.00;4.95;;;7.20;99.90;;;;;;4931309;29;20048;-48
2023/03/26 06:55:12;;;;;;;20.65;3.92;;;7.60;99.90;;;;;;4932147;29;20047;-48
2023/03/26 06:57:38;;;;;;;20.50;4.65;;;7.40;99.90;;;;;;4933829;29;20097;-49
2023/03/26 07:00:05;;;;;;;13.85;3.40;;;7.20;99.90;;;;;;4933729;29;20044;-50
2023/03/26 07:02:32;;;;;;;18.38;4.22;;;7.30;99.90;;;;;;4934097;29;20118;-49
2023/03/26 07:04:57;;;;;;;18.05;3.88;;;7.20;99.90;;;;;;4933880;29;20083;-50
2023/03/26 07:07:23;;;;;;;14.23;3.83;;;7.20;99.90;;;;;;4933831;29;20075;-47
2023/03/26 07:09:50;;;;;;;19.42;3.78;;;7.20;99.90;;;;;;4933647;29;20073;-47
2023/03/26 07:12:16;;;;;;;21.17;3.10;;;7.30;99.90;;;;;;4933728;29;20047;-46
2023/03/26 07:14:42;;;;;;;16.25;3.78;;;7.20;99.90;;;;;;4933739;29;20032;-50
2023/03/26 07:17:08;;;;;;;21.50;3.35;;;7.30;99.90;;;;;;4933649;29;20391;-52
2023/03/26 07:19:33;;;;;;;13.70;2.85;;;7.50;99.90;;;;;;4933015;29;20404;-50
2023/03/26 07:22:00;;;;;;;21.27;3.50;;;7.60;99.90;;;;;;4930774;29;20062;-48
2023/03/26 07:24:26;;;;;;;17.50;3.15;;;7.40;99.90;;;;;;4932965;29;20043;-48
2023/03/26 07:27:00;;;;;;;23.45;3.10;;;7.60;99.90;;;;;;4932625;29;20138;-50
2023/03/26 07:29:47;;;;;;;18.80;2.92;;;7.70;99.90;;;;;;4932324;29;20122;-52
2023/03/26 07:32:45;;;;;;;14.68;2.95;;;7.40;99.90;;;;;;4933421;29;20480;-49
2023/03/26 07:35:18;;;;;;;15.88;2.83;;;7.70;99.90;;;;;;4932722;29;20047;-50
2023/03/26 07:38:26;;;;;;;14.15;3.03;;;7.50;99.90;;;;;;4932169;29;20079;-49
2023/03/26 07:41:14;;;;;;;22.75;3.15;;;7.60;99.90;;;;;;4933259;29;20052;-49
2023/03/26 07:44:05;;;;;;;20.58;3.30;;;7.60;99.90;;;;;;4932997;29;20127;-48
2023/03/26 07:46:35;;;;;;;16.98;2.83;;;7.50;99.90;;;;;;4933346;29;20099;-49
2023/03/26 07:49:03;;;;;;;19.75;4.20;;;7.50;99.90;;;;;;4915828;29;20068;-50
2023/03/26 07:51:29;;;;;;;32.50;3.90;;;7.60;99.90;;;;;;4932665;29;20058;-48
2023/03/26 07:53:58;;;;;;;18.30;2.67;;;7.50;99.90;;;;;;4930426;29;20046;-49
2023/03/26 07:57:05;;;;;;;17.92;2.88;;;7.70;99.90;;;;;;4931239;29;20055;-47
2023/03/26 07:59:42;;;;;;;17.95;2.67;;;7.60;99.90;;;;;;4893008;29;20044;-49
2023/03/26 08:03:01;;;;;;;19.05;3.15;;;7.80;99.90;;;;;;4893411;29;20084;-47
2023/03/26 08:05:49;;;;;;;18.23;2.78;;;7.70;99.90;;;;;;4914047;29;20079;-47
2023/03/26 08:08:52;;;;;;;18.83;2.75;;;7.80;99.90;;;;;;4930652;29;20115;-51
2023/03/26 08:11:36;;;;;;;18.77;2.90;;;7.70;99.90;;;;;;4932329;29;20044;-47
2023/03/26 08:14:14;;;;;;;16.20;2.50;;;7.90;99.90;;;;;;4932904;29;20430;-51
2023/03/26 08:17:03;;;;;;;16.10;2.90;;;8.00;99.90;;;;;;4932890;29;20059;-49
2023/03/26 08:19:40;;;;;;;14.88;2.85;;;7.90;99.90;;;;;;4931739;29;20067;-49
2023/03/26 08:22:19;;;;;;;18.77;3.47;;;8.00;99.90;;;;;;4931146;29;20062;-52
2023/03/26 08:25:10;;;;;;;17.67;2.67;;;7.80;99.90;;;;;;4930096;29;20051;-51
2023/03/26 08:28:04;;;;;;;20.20;3.00;;;8.00;99.90;;;;;;4922860;29;20043;-47
2023/03/26 08:30:30;;;;;;;18.00;3.25;;;7.90;99.90;;;;;;4925597;29;20050;-46
2023/03/26 08:33:13;;;;;;;13.48;3.20;;;7.90;99.90;;;;;;4909675;29;20063;-51
2023/03/26 08:35:42;;;;;;;14.30;2.83;;;7.90;99.90;;;;;;4926837;29;20130;-49
2023/03/26 08:38:13;;;;;;;20.45;3.42;;;7.90;99.90;;;;;;4926864;29;20075;-47
2023/03/26 08:41:09;;;;;;;19.33;3.10;;;7.90;99.90;;;;;;4927641;29;20052;-47
2023/03/26 08:44:13;;;;;;;14.68;3.10;;;7.90;99.90;;;;;;4927638;29;20123;-47
2023/03/26 08:46:56;;;;;;;18.90;2.53;;;8.00;99.90;;;;;;4928755;29;20047;-49
2023/03/26 08:50:02;;;;;;;19.20;3.28;;;8.00;99.90;;;;;;4928613;29;20043;-47
2023/03/26 08:52:36;;;;;;;18.17;2.63;;;8.80;99.90;;;;;;4926630;29;20048;-48
2023/03/26 08:55:38;;;;;;;23.30;4.30;;;7.90;99.90;;;;;;4926771;29;21403;-47
2023/03/26 08:58:28;;;;;;;15.30;2.63;;;8.00;99.90;;;;;;4926683;29;20098;-51
2023/03/26 09:00:56;;;;;;;19.63;3.05;;;8.10;99.90;;;;;;4927188;29;20047;-51
2023/03/26 09:03:28;;;;;;;16.25;2.33;;;8.00;99.90;;;;;;4927115;29;20040;-47
2023/03/26 09:06:19;;;;;;;17.33;2.90;;;8.00;99.90;;;;;;4926332;29;20054;-47
2023/03/26 09:08:50;;;;;;;17.60;2.72;;;8.10;99.90;;;;;;4926862;29;20183;-50
2023/03/26 09:11:27;;;;;;;18.17;2.50;;;8.10;99.90;;;;;;4926548;29;20388;-51
2023/03/26 09:14:03;;;;;;;19.60;2.70;;;8.10;99.90;;;;;;4927232;29;20384;-47
2023/03/26 09:16:54;;;;;;;18.95;2.88;;;8.10;99.90;;;;;;4926370;29;20108;-47
2023/03/26 09:19:29;;;;;;;21.40;2.78;;;8.10;99.90;;;;;;4927185;29;20114;-49
2023/03/26 09:22:14;;;;;;;22.48;2.80;;;8.20;99.90;;;;;;4926947;29;20047;-49
2023/03/26 09:25:17;;;;;;;16.95;2.72;;;8.20;99.90;;;;;;4927373;29;20051;-50
2023/03/26 09:27:54;;;;;;;19.73;2.42;;;8.20;99.90;;;;;;4925083;29;20039;-46
2023/03/26 09:30:39;;;;;;;20.95;3.00;;;8.20;99.90;;;;;;4926047;29;20361;-47
2023/03/26 09:33:30;;;;;;;19.02;2.50;;;8.10;99.90;;;;;;4928744;29;20066;-51
2023/03/26 09:36:08;;;;;;;18.65;2.35;;;8.20;99.90;;;;;;4926897;29;20483;-52
2023/03/26 09:38:50;;;;;;;19.58;2.70;;;8.20;99.90;;;;;;4926186;29;20035;-50
2023/03/26 09:41:26;;;;;;;19.75;3.03;;;8.20;99.90;;;;;;4926162;29;20031;-50
2023/03/26 09:44:17;;;;;;;16.40;2.63;;;8.30;99.90;;;;;;4926283;29;20036;-47
2023/03/26 09:47:21;;;;;;;13.30;3.00;;;8.40;99.90;;;;;;4927311;29;20099;-48
2023/03/26 09:49:59;;;;;;;21.13;3.17;;;8.40;99.90;;;;;;4926030;29;20114;-49
2023/03/26 09:53:07;;;;;;;21.75;2.95;;;8.60;99.90;;;;;;4925435;29;20047;-52
2023/03/26 09:56:03;;;;;;;17.58;2.30;;;8.60;99.90;;;;;;4925839;29;20522;-46
2023/03/26 09:58:55;;;;;;;17.15;2.85;;;8.70;99.90;;;;;;4925905;29;20067;-51
2023/03/26 10:01:30;;;;;;;13.68;3.03;;;8.80;99.90;;;;;;4926079;29;20471;-50
2023/03/26 10:04:22;;;;;;;16.58;2.67;;;9.00;99.90;;;;;;4925914;29;20435;-49
2023/03/26 10:06:56;;;;;;;17.77;3.20;;;9.10;99.90;;;;;;4926128;29;20059;-50
2023/03/26 10:09:34;;;;;;;13.20;2.15;;;9.10;99.90;;;;;;4909208;29;20071;-51
2023/03/26 10:12:27;;;;;;;16.60;2.95;;;9.20;99.90;;;;;;4926199;29;20035;-50
2023/03/26 10:15:01;;;;;;;14.73;2.60;;;9.30;99.90;;;;;;4925943;29;20476;-46
2023/03/26 10:17:39;;;;;;;17.42;2.65;;;9.40;99.90;;;;;;4923741;29;20040;-49
2023/03/26 10:20:32;;;;;;;21.13;2.90;;;9.40;99.90;;;;;;4924546;29;20042;-47
2023/03/26 10:23:35;;;;;;;20.92;3.55;;;9.50;99.90;;;;;;4925061;29;20373;-49
2023/03/26 10:26:20;;;;;;;17.38;2.97;;;9.60;99.90;;;;;;4923359;29;20381;-49
2023/03/26 10:29:13;;;;;;;18.75;2.78;;;9.50;99.90;;;;;;4926282;29;20048;-49
2023/03/26 10:31:45;;;;;;;17.02;2.22;;;9.50;99.90;;;;;;4925682;29;20440;-48
2023/03/26 10:34:11;;;;;;;14.25;2.97;;;9.50;99.90;;;;;;4926015;29;20052;-50
2023/03/26 10:36:43;;;;;;;17.63;2.60;;;9.50;99.90;;;;;;4922939;29;20062;-47
2023/03/26 10:39:15;;;;;;;18.67;2.63;;;9.50;99.90;;;;;;4925760;29;20035;-49
2023/03/26 10:41:52;;;;;;;14.18;2.88;;;9.50;99.90;;;;;;4924748;29;20126;-52
2023/03/26 10:44:29;;;;;;;22.60;2.95;;;9.50;99.90;;;;;;4925334;29;20036;-50
2023/03/26 10:47:25;;;;;;;20.35;2.70;;;9.50;99.90;;;;;;4907670;29;20054;-50
2023/03/26 10:49:54;;;;;;;18.85;2.78;;;9.50;99.90;;;;;;4907613;29;20478;-50
2023/03/26 10:52:26;;;;;;;16.58;2.47;;;9.50;99.90;;;;;;4925769;29;20099;-51
2023/03/26 10:55:02;;;;;;;13.07;2.67;;;9.50;99.90;;;;;;4906732;29;20048;-47
2023/03/26 10:57:57;;;;;;;16.27;2.90;;;9.60;99.90;;;;;;4923443;29;20047;-51
2023/03/26 11:00:25;;;;;;;11.20;2.42;;;9.60;99.90;;;;;;4926224;29;20035;-50
2023/03/26 11:03:21;;;;;;;13.27;2.47;;;9.50;99.90;;;;;;4925964;29;20036;-49
2023/03/26 11:06:28;;;;;;;16.02;2.97;;;9.50;99.90;;;;;;4922853;29;20192;-49
2023/03/26 11:08:54;;;;;;;13.07;2.97;;;9.40;99.90;;;;;;4897197;29;20051;-46
2023/03/26 11:11:35;;;;;;;14.70;2.53;;;9.50;99.90;;;;;;4924743;29;20111;-50
2023/03/26 11:14:38;;;;;;;12.38;2.00;;;9.50;99.90;;;;;;4907658;29;20480;-48
2023/03/26 11:17:28;;;;;;;12.02;2.30;;;9.50;99.90;;;;;;4923164;29;20146;-49
2023/03/26 11:20:01;;;;;;;12.52;2.42;;;9.50;99.90;;;;;;4924520;29;20090;-51
2023/03/26 11:22:45;;;;;;;16.52;2.50;;;9.60;99.90;;;;;;4924908;29;20047;-53
2023/03/26 11:25:32;;;;;;;15.15;2.47;;;9.70;99.90;;;;;;4923841;29;20040;-51
2023/03/26 11:28:18;;;;;;;14.57;2.20;;;9.70;99.90;;;;;;4923927;29;20055;-49
2023/03/26 11:31:07;;;;;;;12.13;2.33;;;9.80;99.90;;;;;;4923523;29;20149;-49
2023/03/26 11:33:42;;;;;;;15.27;2.33;;;9.80;99.90;;;;;;4923763;29;20051;-50
2023/03/26 11:36:30;;;;;;;9.45;2.17;;;10.00;99.90;;;;;;4906631;29;20250;-52
2023/03/26 11:39:00;;;;;;;11.20;2.30;;;10.10;99.90;;;;;;4906328;29;20051;-51
2023/03/26 11:41:32;;;;;;;12.25;1.73;;;10.20;99.90;;;;;;4906425;29;20699;-50
2023/03/26 11:44:04;;;;;;;13.15;1.80;;;10.20;99.90;;;;;;4925038;29;20043;-49
2023/03/26 11:46:31;;;;;;;14.68;2.53;;;10.20;99.90;;;;;;4923902;29;20087;-50
2023/03/26 11:48:58;;;;;;;11.52;2.33;;;10.10;99.90;;;;;;4923834;29;20043;-48
2023/03/26 11:51:34;;;;;;;19.35;2.20;;;10.20;99.90;;;;;;4923049;29;20086;-50
2023/03/26 11:54:01;;;;;;;11.48;2.03;;;10.20;99.90;;;;;;4923358;29;20122;-51
2023/03/26 11:56:52;;;;;;;15.73;2.15;;;10.30;99.90;;;;;;4922948;29;20399;-46
2023/03/26 11:59:42;;;;;;;12.05;2.53;;;10.30;99.90;;;;;;4923187;29;20102;-50
2023/03/26 12:02:16;;;;;;;12.77;1.90;;;10.40;99.90;;;;;;4922964;29;20043;-50
2023/03/26 12:04:44;;;;;;;;;;;10.50;99.90;;;;;;4923545;29;20043;-48
2023/03/26 12:07:29;;;;;;;10.82;2.13;;;10.70;99.90;;;;;;4921377;29;19973;-49
2023/03/26 12:10:06;;;;;;;12.35;2.40;;;11.00;99.90;;;;;;4919237;29;20050;-51
2023/03/26 12:12:37;;;;;;;14.30;2.15;;;11.10;99.90;;;;;;4923269;29;20123;-50
2023/03/26 12:15:04;;;;;;;12.57;2.08;;;11.20;99.90;;;;;;4926238;29;20039;-47
2023/03/26 12:17:35;;;;;;;12.90;2.83;;;11.20;99.90;;;;;;4923940;29;20047;-50
2023/03/26 12:20:22;;;;;;;13.45;2.10;;;11.30;99.90;;;;;;4907027;29;20055;-52
2023/03/26 12:22:48;;;;;;;9.13;2.30;;;11.60;99.90;;;;;;4925996;29;20052;-50
2023/03/26 12:25:32;;;;;;;11.70;2.38;;;11.80;99.90;;;;;;4924041;29;20630;-50
2023/03/26 12:28:14;;;;;;;11.90;2.58;;;12.10;99.90;;;;;;4923279;29;20028;-50
2023/03/26 12:31:01;;;;;;;10.48;2.17;;;12.10;99.90;;;;;;4926599;29;20052;-52
2023/03/26 12:33:32;;;;;;;18.60;3.17;;;12.20;99.90;;;;;;4925712;29;20048;-50
2023/03/26 12:36:15;;;;;;;12.10;2.50;;;12.10;99.90;;;;;;4924050;29;20046;-51
2023/03/26 12:38:41;;;;;;;14.60;3.25;;;11.90;99.90;;;;;;4923613;29;20119;-49
2023/03/26 12:41:12;;;;;;;14.32;2.70;;;12.20;99.90;;;;;;4923613;29;20757;-50
2023/03/26 12:43:45;;;;;;;11.05;2.35;;;12.20;99.90;;;;;;4923337;29;20036;-52
2023/03/26 12:46:25;;;;;;;17.17;3.20;;;12.10;99.90;;;;;;4925385;29;20047;-47
2023/03/26 12:48:56;;;;;;;11.40;2.38;;;11.80;99.90;;;;;;4924079;29;20067;-50
2023/03/26 12:51:39;;;;;;;13.15;3.00;;;11.70;99.90;;;;;;4921701;29;20063;-49
2023/03/26 12:54:23;;;;;;;14.02;2.38;;;11.50;99.90;;;;;;4906466;29;20055;-51
2023/03/26 12:57:07;;;;;;;12.55;2.70;;;11.30;99.90;;;;;;4924634;29;20086;-50
2023/03/26 12:59:55;;;;;;;14.68;2.90;;;11.30;99.90;;;;;;4925424;29;20028;-48
2023/03/26 13:02:52;;;;;;;13.25;2.60;;;11.10;99.90;;;;;;4917112;29;20044;-49
2023/03/26 13:05:36;;;;;;;9.18;2.10;;;10.90;99.90;;;;;;4923624;29;20032;-50
2023/03/26 13:08:31;;;;;;;15.43;2.35;;;10.90;99.90;;;;;;4925705;29;20391;-48
2023/03/26 13:11:24;;;;;;;16.70;2.83;;;10.90;99.90;;;;;;4923290;29;20126;-51
2023/03/26 13:14:02;;;;;;;14.65;2.40;;;10.70;99.90;;;;;;4905619;29;20123;-48
2023/03/26 13:16:37;;;;;;;13.70;2.75;;;10.50;99.90;;;;;;4922121;29;20061;-50
2023/03/26 13:19:08;;;;;;;12.30;2.55;;;10.50;99.90;;;;;;4925749;29;20047;-50
2023/03/26 13:21:55;;;;;;;13.52;2.65;;;10.40;99.90;;;;;;4926074;29;20028;-52
2023/03/26 13:24:27;;;;;;;15.82;2.97;;;10.50;99.90;;;;;;4925096;29;20469;-50